sensor_id;sensor_type;location;lat;lon;timestamp;pressure;altitude;pressure_sealevel;temperature;humidity
39443;BME280;25147;52.142;9.960;2023-04-01T00:01:10;98262.25;;;7.38;100.00
39443;BME280;25147;52.142;9.960;2023-04-01T00:03:39;98448.88;;;8.54;100.00
39443;BME280;25147;52.142;9.960;2023-04-01T00:06:06;98587.47;;;9.35;100.00
39443;BME280;25147;52.142;9.960;2023-04-01T00:08:33;98398.41;;;8.33;100.00
39443;BME280;25147;52.142;9.960;2023-04-01T00:10:59;98319.31;;;7.90;100.00
39443;BME280;25147;52.142;9.960;2023-04-01T00:13:26;98572.63;;;9.35;100.00
39443;BME280;25147;52.142;9.960;2023-04-01T00:15:53;98559.47;;;9.38;100.00
39443;BME280;25147;52.142;9.960;2023-04-01T00:18:22;98561.97;;;9.40;100.00
39443;BME280;25147;52.142;9.960;2023-04-01T00:20:50;98562.84;;;9.40;100.00
39443;BME280;25147;52.142;9.960;2023-04-01T00:23:18;98558.47;;;9.41;100.00
39443;BME280;25147;52.142;9.960;2023-04-01T00:25:45;98557.53;;;9.42;99.96
39443;BME280;25147;52.142;9.960;2023-04-01T00:28:13;98556.66;;;9.43;99.50
39443;BME280;25147;52.142;9.960;2023-04-01T00:30:40;98562.72;;;9.43;99.69
39443;BME280;25147;52.142;9.960;2023-04-01T00:33:07;98557.44;;;9.45;99.16
39443;BME280;25147;52.142;9.960;2023-04-01T00:35:35;98570.44;;;9.47;98.73
39443;BME280;25147;52.142;9.960;2023-04-01T00:38:02;98446.25;;;8.76;98.58
39443;BME280;25147;52.142;9.960;2023-04-01T00:40:32;98556.50;;;9.46;98.37
39443;BME280;25147;52.142;9.960;2023-04-01T00:43:00;98341.66;;;8.18;97.55
39443;BME280;25147;52.142;9.960;2023-04-01T00:45:33;98553.84;;;9.48;97.57
39443;BME280;25147;52.142;9.960;2023-04-01T00:48:04;98393.25;;;8.54;97.40
39443;BME280;25147;52.142;9.960;2023-04-01T00:50:34;98433.91;;;8.59;97.22
39443;BME280;25147;52.142;9.960;2023-04-01T00:53:02;98542.50;;;9.49;96.96
39443;BME280;25147;52.142;9.960;2023-04-01T00:55:32;98411.56;;;8.52;96.52
39443;BME280;25147;52.142;9.960;2023-04-01T00:58:02;98241.50;;;7.59;96.72
39443;BME280;25147;52.142;9.960;2023-04-01T01:00:31;98180.72;;;7.16;96.46
39443;BME280;25147;52.142;9.960;2023-04-01T01:02:57;98362.09;;;8.29;96.35
39443;BME280;25147;52.142;9.960;2023-04-01T01:05:34;98503.88;;;9.14;96.79
39443;BME280;25147;52.142;9.960;2023-04-01T01:08:09;98273.94;;;7.74;96.73
39443;BME280;25147;52.142;9.960;2023-04-01T01:10:42;98520.97;;;9.21;97.50
39443;BME280;25147;52.142;9.960;2023-04-01T01:13:17;98248.06;;;7.47;98.13
39443;BME280;25147;52.142;9.960;2023-04-01T01:15:53;98431.28;;;8.59;99.41
39443;BME280;25147;52.142;9.960;2023-04-01T01:18:29;98366.22;;;8.12;100.00
39443;BME280;25147;52.142;9.960;2023-04-01T01:21:11;98529.59;;;9.01;100.00
39443;BME280;25147;52.142;9.960;2023-04-01T01:24:08;98317.47;;;7.70;100.00
39443;BME280;25147;52.142;9.960;2023-04-01T01:26:46;98456.59;;;8.57;100.00
39443;BME280;25147;52.142;9.960;2023-04-01T01:29:35;98340.69;;;7.76;100.00
39443;BME280;25147;52.142;9.960;2023-04-01T01:32:11;98280.25;;;7.44;100.00
39443;BME280;25147;52.142;9.960;2023-04-01T01:34:49;98578.00;;;9.10;100.00
39443;BME280;25147;52.142;9.960;2023-04-01T01:37:22;98320.97;;;7.69;100.00
39443;BME280;25147;52.142;9.960;2023-04-01T01:39:54;98309.22;;;7.59;100.00
39443;BME280;25147;52.142;9.960;2023-04-01T01:42:23;98457.72;;;8.50;100.00
39443;BME280;25147;52.142;9.960;2023-04-01T01:44:53;98481.34;;;8.47;100.00
39443;BME280;25147;52.142;9.960;2023-04-01T01:47:22;98411.19;;;8.17;100.00
39443;BME280;25147;52.142;9.960;2023-04-01T01:49:51;98237.53;;;7.05;100.00
39443;BME280;25147;52.142;9.960;2023-04-01T01:52:19;98553.97;;;9.02;100.00
39443;BME280;25147;52.142;9.960;2023-04-01T01:54:48;98586.19;;;9.01;100.00
39443;BME280;25147;52.142;9.960;2023-04-01T01:57:16;98527.09;;;8.78;100.00
39443;BME280;25147;52.142;9.960;2023-04-01T01:59:44;98556.63;;;9.00;100.00
39443;BME280;25147;52.142;9.960;2023-04-01T02:02:13;98549.88;;;8.95;100.00
39443;BME280;25147;52.142;9.960;2023-04-01T02:04:42;98569.69;;;9.00;100.00
39443;BME280;25147;52.142;9.960;2023-04-01T02:07:13;98532.94;;;8.83;100.00
39443;BME280;25147;52.142;9.960;2023-04-01T02:09:43;98521.31;;;8.70;100.00
39443;BME280;25147;52.142;9.960;2023-04-01T02:12:12;98528.91;;;8.76;100.00
39443;BME280;25147;52.142;9.960;2023-04-01T02:14:43;98477.84;;;8.47;100.00
39443;BME280;25147;52.142;9.960;2023-04-01T02:17:14;98506.66;;;8.67;100.00
39443;BME280;25147;52.142;9.960;2023-04-01T02:19:46;98474.34;;;8.48;100.00
39443;BME280;25147;52.142;9.960;2023-04-01T02:22:17;98588.78;;;9.01;100.00
39443;BME280;25147;52.142;9.960;2023-04-01T02:24:48;98340.34;;;7.62;100.00
39443;BME280;25147;52.142;9.960;2023-04-01T02:27:16;98601.66;;;9.06;100.00
39443;BME280;25147;52.142;9.960;2023-04-01T02:29:43;98570.34;;;9.06;100.00
39443;BME280;25147;52.142;9.960;2023-04-01T02:32:10;98397.78;;;8.04;100.00
39443;BME280;25147;52.142;9.960;2023-04-01T02:34:39;98413.97;;;8.13;100.00
39443;BME280;25147;52.142;9.960;2023-04-01T02:37:06;98480.06;;;8.57;100.00
39443;BME280;25147;52.142;9.960;2023-04-01T02:39:33;98578.84;;;9.11;100.00
39443;BME280;25147;52.142;9.960;2023-04-01T02:42:01;98379.00;;;7.96;100.00
39443;BME280;25147;52.142;9.960;2023-04-01T02:44:27;98476.72;;;8.54;100.00
39443;BME280;25147;52.142;9.960;2023-04-01T02:46:54;98261.00;;;7.27;100.00
39443;BME280;25147;52.142;9.960;2023-04-01T02:49:21;98561.66;;;9.05;100.00
39443;BME280;25147;52.142;9.960;2023-04-01T02:51:48;98363.50;;;7.70;100.00
39443;BME280;25147;52.142;9.960;2023-04-01T02:54:14;98575.50;;;9.07;100.00
39443;BME280;25147;52.142;9.960;2023-04-01T02:56:41;98567.66;;;9.07;100.00
39443;BME280;25147;52.142;9.960;2023-04-01T02:59:09;98152.78;;;6.52;100.00
39443;BME280;25147;52.142;9.960;2023-04-01T03:01:35;98487.09;;;8.55;100.00
39443;BME280;25147;52.142;9.960;2023-04-01T03:04:02;98251.81;;;7.16;100.00
39443;BME280;25147;52.142;9.960;2023-04-01T03:06:29;98578.84;;;9.11;100.00
39443;BME280;25147;52.142;9.960;2023-04-01T03:08:56;98573.56;;;9.12;100.00
39443;BME280;25147;52.142;9.960;2023-04-01T03:11:22;98581.41;;;9.12;100.00
39443;BME280;25147;52.142;9.960;2023-04-01T03:13:51;98580.06;;;9.02;100.00
39443;BME280;25147;52.142;9.960;2023-04-01T03:16:19;98064.22;;;6.09;100.00
39443;BME280;25147;52.142;9.960;2023-04-01T03:18:46;98471.78;;;8.46;100.00
39443;BME280;25147;52.142;9.960;2023-04-01T03:21:16;98383.38;;;7.96;100.00
39443;BME280;25147;52.142;9.960;2023-04-01T03:23:43;98581.41;;;9.12;100.00
39443;BME280;25147;52.142;9.960;2023-04-01T03:26:09;98533.88;;;8.82;100.00
39443;BME280;25147;52.142;9.960;2023-04-01T03:28:36;98599.72;;;9.11;100.00
39443;BME280;25147;52.142;9.960;2023-04-01T03:31:03;98498.19;;;8.60;100.00
39443;BME280;25147;52.142;9.960;2023-04-01T03:33:32;98239.34;;;7.02;100.00
39443;BME280;25147;52.142;9.960;2023-04-01T03:35:59;98481.84;;;8.57;100.00
39443;BME280;25147;52.142;9.960;2023-04-01T03:38:25;98574.59;;;9.08;100.00
39443;BME280;25147;52.142;9.960;2023-04-01T03:40:52;98533.94;;;8.80;100.00
39443;BME280;25147;52.142;9.960;2023-04-01T03:43:19;98404.22;;;7.96;100.00
39443;BME280;25147;52.142;9.960;2023-04-01T03:45:46;98547.47;;;8.90;100.00
39443;BME280;25147;52.142;9.960;2023-04-01T03:48:13;98584.97;;;9.10;100.00
39443;BME280;25147;52.142;9.960;2023-04-01T03:50:41;98605.94;;;9.08;100.00
39443;BME280;25147;52.142;9.960;2023-04-01T03:53:08;98573.09;;;9.02;100.00
39443;BME280;25147;52.142;9.960;2023-04-01T03:55:36;98148.72;;;6.19;100.00
39443;BME280;25147;52.142;9.960;2023-04-01T03:58:03;98257.94;;;7.15;100.00
39443;BME280;25147;52.142;9.960;2023-04-01T04:00:30;98582.44;;;9.08;100.00
39443;BME280;25147;52.142;9.960;2023-04-01T04:02:57;98540.78;;;8.83;100.00
39443;BME280;25147;52.142;9.960;2023-04-01T04:05:25;98423.59;;;8.11;100.00
39443;BME280;25147;52.142;9.960;2023-04-01T04:07:54;98500.94;;;8.57;100.00
39443;BME280;25147;52.142;9.960;2023-04-01T04:10:21;98591.41;;;9.01;100.00
39443;BME280;25147;52.142;9.960;2023-04-01T04:12:51;98592.13;;;9.04;100.00
39443;BME280;25147;52.142;9.960;2023-04-01T04:15:18;98433.75;;;7.95;100.00
39443;BME280;25147;52.142;9.960;2023-04-01T04:17:46;98479.81;;;8.40;100.00
39443;BME280;25147;52.142;9.960;2023-04-01T04:20:13;98586.19;;;9.01;100.00
39443;BME280;25147;52.142;9.960;2023-04-01T04:22:40;98614.06;;;9.00;100.00
39443;BME280;25147;52.142;9.960;2023-04-01T04:25:08;98588.00;;;8.99;100.00
39443;BME280;25147;52.142;9.960;2023-04-01T04:27:35;98291.56;;;7.20;100.00
39443;BME280;25147;52.142;9.960;2023-04-01T04:30:06;98307.09;;;7.23;100.00
39443;BME280;25147;52.142;9.960;2023-04-01T04:32:33;98517.84;;;8.47;100.00
39443;BME280;25147;52.142;9.960;2023-04-01T04:35:00;98456.56;;;8.12;100.00
39443;BME280;25147;52.142;9.960;2023-04-01T04:37:27;98617.69;;;8.96;100.00
39443;BME280;25147;52.142;9.960;2023-04-01T04:39:54;98609.91;;;8.95;100.00
39443;BME280;25147;52.142;9.960;2023-04-01T04:42:22;98537.97;;;8.43;100.00
39443;BME280;25147;52.142;9.960;2023-04-01T04:44:49;98637.84;;;8.93;100.00
39443;BME280;25147;52.142;9.960;2023-04-01T04:47:16;98621.81;;;8.80;100.00
39443;BME280;25147;52.142;9.960;2023-04-01T04:49:42;98617.13;;;8.88;100.00
39443;BME280;25147;52.142;9.960;2023-04-01T04:52:09;98580.41;;;8.71;100.00
39443;BME280;25147;52.142;9.960;2023-04-01T04:54:36;98220.06;;;6.34;100.00
39443;BME280;25147;52.142;9.960;2023-04-01T04:57:03;98441.50;;;7.73;100.00
39443;BME280;25147;52.142;9.960;2023-04-01T04:59:31;98537.69;;;8.26;100.00
39443;BME280;25147;52.142;9.960;2023-04-01T05:01:58;98536.81;;;8.27;100.00
39443;BME280;25147;52.142;9.960;2023-04-01T05:04:25;98621.97;;;8.75;100.00
39443;BME280;25147;52.142;9.960;2023-04-01T05:06:52;98440.94;;;7.64;100.00
39443;BME280;25147;52.142;9.960;2023-04-01T05:09:19;98515.72;;;8.10;100.00
39443;BME280;25147;52.142;9.960;2023-04-01T05:11:46;98451.97;;;7.71;100.00
39443;BME280;25147;52.142;9.960;2023-04-01T05:14:14;98634.28;;;8.72;100.00
39443;BME280;25147;52.142;9.960;2023-04-01T05:16:43;98322.09;;;6.91;100.00
39443;BME280;25147;52.142;9.960;2023-04-01T05:19:10;98644.78;;;8.70;100.00
39443;BME280;25147;52.142;9.960;2023-04-01T05:21:37;98638.72;;;8.70;100.00
39443;BME280;25147;52.142;9.960;2023-04-01T05:24:07;98614.38;;;8.69;100.00
39443;BME280;25147;52.142;9.960;2023-04-01T05:26:36;98552.78;;;8.18;100.00
39443;BME280;25147;52.142;9.960;2023-04-01T05:29:03;98603.72;;;8.52;100.00
39443;BME280;25147;52.142;9.960;2023-04-01T05:31:30;98618.81;;;8.67;100.00
39443;BME280;25147;52.142;9.960;2023-04-01T05:33:58;98412.94;;;7.22;100.00
39443;BME280;25147;52.142;9.960;2023-04-01T05:36:25;98415.38;;;7.27;100.00
39443;BME280;25147;52.142;9.960;2023-04-01T05:38:54;98459.22;;;7.63;100.00
39443;BME280;25147;52.142;9.960;2023-04-01T05:41:21;98174.53;;;5.99;100.00
39443;BME280;25147;52.142;9.960;2023-04-01T05:43:48;98618.69;;;8.70;100.00
39443;BME280;25147;52.142;9.960;2023-04-01T05:46:15;98617.50;;;8.55;100.00
39443;BME280;25147;52.142;9.960;2023-04-01T05:48:42;98463.88;;;7.78;100.00
39443;BME280;25147;52.142;9.960;2023-04-01T05:51:13;98625.19;;;8.82;100.00
39443;BME280;25147;52.142;9.960;2023-04-01T05:53:40;98391.69;;;7.35;100.00
39443;BME280;25147;52.142;9.960;2023-04-01T05:56:07;98640.63;;;8.88;100.00
39443;BME280;25147;52.142;9.960;2023-04-01T05:58:35;98620.97;;;8.79;100.00
39443;BME280;25147;52.142;9.960;2023-04-01T06:01:02;98636.84;;;8.95;100.00
39443;BME280;25147;52.142;9.960;2023-04-01T06:03:29;98627.22;;;8.97;100.00
39443;BME280;25147;52.142;9.960;2023-04-01T06:05:56;98558.41;;;8.54;100.00
39443;BME280;25147;52.142;9.960;2023-04-01T06:08:24;98329.69;;;7.22;100.00
39443;BME280;25147;52.142;9.960;2023-04-01T06:11:12;98637.97;;;9.12;100.00
39443;BME280;25147;52.142;9.960;2023-04-01T06:13:57;98622.88;;;8.98;100.00
39443;BME280;25147;52.142;9.960;2023-04-01T06:16:39;98640.28;;;9.19;100.00
39443;BME280;25147;52.142;9.960;2023-04-01T06:19:34;98392.81;;;7.75;100.00
39443;BME280;25147;52.142;9.960;2023-04-01T06:22:13;98628.19;;;9.17;100.00
39443;BME280;25147;52.142;9.960;2023-04-01T06:25:09;98660.94;;;9.26;100.00
39443;BME280;25147;52.142;9.960;2023-04-01T06:27:52;98627.34;;;9.16;100.00
39443;BME280;25147;52.142;9.960;2023-04-01T06:30:34;98647.16;;;9.22;100.00
39443;BME280;25147;52.142;9.960;2023-04-01T06:33:12;98650.38;;;9.29;100.00
39443;BME280;25147;52.142;9.960;2023-04-01T06:36:05;98378.00;;;7.53;100.00
39443;BME280;25147;52.142;9.960;2023-04-01T06:38:47;98562.50;;;8.61;100.00
39443;BME280;25147;52.142;9.960;2023-04-01T06:44:50;98571.06;;;8.87;100.00
39443;BME280;25147;52.142;9.960;2023-04-01T06:47:29;98592.38;;;8.98;100.00
39443;BME280;25147;52.142;9.960;2023-04-01T06:50:05;98646.13;;;9.26;100.00
39443;BME280;25147;52.142;9.960;2023-04-01T06:52:42;98573.91;;;8.81;100.00
39443;BME280;25147;52.142;9.960;2023-04-01T06:55:26;98668.91;;;9.44;100.00
39443;BME280;25147;52.142;9.960;2023-04-01T06:57:55;98668.13;;;9.42;100.00
39443;BME280;25147;52.142;9.960;2023-04-01T07:00:31;98668.38;;;9.36;100.00
39443;BME280;25147;52.142;9.960;2023-04-01T07:03:06;98582.97;;;8.94;100.00
39443;BME280;25147;52.142;9.960;2023-04-01T07:05:35;98679.94;;;9.51;100.00
39443;BME280;25147;52.142;9.960;2023-04-01T07:08:04;98679.81;;;9.54;100.00
39443;BME280;25147;52.142;9.960;2023-04-01T07:10:41;98582.13;;;8.94;100.00
39443;BME280;25147;52.142;9.960;2023-04-01T07:13:14;98711.06;;;9.57;100.00
39443;BME280;25147;52.142;9.960;2023-04-01T07:15:51;98373.41;;;7.60;100.00
39443;BME280;25147;52.142;9.960;2023-04-01T07:18:29;98408.13;;;7.84;100.00
39443;BME280;25147;52.142;9.960;2023-04-01T07:20:57;98705.34;;;9.70;100.00
39443;BME280;25147;52.142;9.960;2023-04-01T07:23:28;98567.75;;;8.83;100.00
39443;BME280;25147;52.142;9.960;2023-04-01T07:26:00;98439.97;;;8.14;100.00
39443;BME280;25147;52.142;9.960;2023-04-01T07:28:33;98245.56;;;6.98;100.00
39443;BME280;25147;52.142;9.960;2023-04-01T07:31:14;98585.50;;;9.18;100.00
39443;BME280;25147;52.142;9.960;2023-04-01T07:33:48;98200.81;;;6.89;100.00
39443;BME280;25147;52.142;9.960;2023-04-01T07:36:20;98432.81;;;8.19;100.00
39443;BME280;25147;52.142;9.960;2023-04-01T07:39:06;98465.81;;;8.66;100.00
39443;BME280;25147;52.142;9.960;2023-04-01T07:41:46;98498.38;;;8.78;100.00
39443;BME280;25147;52.142;9.960;2023-04-01T07:44:24;98426.50;;;8.49;100.00
39443;BME280;25147;52.142;9.960;2023-04-01T07:47:02;98580.66;;;9.31;100.00
39443;BME280;25147;52.142;9.960;2023-04-01T07:49:39;98709.84;;;10.09;100.00
39443;BME280;25147;52.142;9.960;2023-04-01T07:52:15;98463.94;;;8.70;100.00
39443;BME280;25147;52.142;9.960;2023-04-01T07:54:48;98502.63;;;9.23;100.00
39443;BME280;25147;52.142;9.960;2023-04-01T07:57:20;98562.88;;;9.61;99.78
39443;BME280;25147;52.142;9.960;2023-04-01T07:59:57;98524.09;;;9.30;99.12
39443;BME280;25147;52.142;9.960;2023-04-01T08:02:39;98342.81;;;8.33;98.61
39443;BME280;25147;52.142;9.960;2023-04-01T08:05:18;98647.88;;;10.11;98.31
39443;BME280;25147;52.142;9.960;2023-04-01T08:07:55;98748.72;;;10.59;98.20
39443;BME280;25147;52.142;9.960;2023-04-01T08:10:32;98377.06;;;8.46;97.77
39443;BME280;25147;52.142;9.960;2023-04-01T08:13:08;98344.94;;;8.23;97.66
39443;BME280;25147;52.142;9.960;2023-04-01T08:15:48;98264.53;;;7.70;97.19
39443;BME280;25147;52.142;9.960;2023-04-01T08:18:35;98282.81;;;8.12;97.36
39443;BME280;25147;52.142;9.960;2023-04-01T08:21:10;98567.41;;;9.97;96.88
39443;BME280;25147;52.142;9.960;2023-04-01T08:23:43;98258.06;;;8.02;96.33
39443;BME280;25147;52.142;9.960;2023-04-01T08:26:14;98591.38;;;10.27;94.76
39443;BME280;25147;52.142;9.960;2023-04-01T08:28:51;98567.81;;;10.08;93.86
39443;BME280;25147;52.142;9.960;2023-04-01T08:31:28;98460.31;;;9.56;94.03
39443;BME280;25147;52.142;9.960;2023-04-01T08:34:13;98331.47;;;8.76;93.07
39443;BME280;25147;52.142;9.960;2023-04-01T08:47:40;98747.16;;;11.70;91.33
39443;BME280;25147;52.142;9.960;2023-04-01T08:50:56;98600.34;;;10.80;90.09
39443;BME280;25147;52.142;9.960;2023-04-01T08:53:41;98490.50;;;10.02;89.69
39443;BME280;25147;52.142;9.960;2023-04-01T08:56:17;98500.81;;;10.06;89.07
39443;BME280;25147;52.142;9.960;2023-04-01T08:58:56;98786.34;;;11.73;89.13
39443;BME280;25147;52.142;9.960;2023-04-01T09:01:44;98514.75;;;10.06;88.98
39443;BME280;25147;52.142;9.960;2023-04-01T09:04:32;98775.22;;;11.87;89.38
39443;BME280;25147;52.142;9.960;2023-04-01T09:07:13;98763.69;;;11.91;87.58
39443;BME280;25147;52.142;9.960;2023-04-01T09:10:04;98504.44;;;10.22;86.35
39443;BME280;25147;52.142;9.960;2023-04-01T09:12:47;98502.50;;;10.25;87.02
39443;BME280;25147;52.142;9.960;2023-04-01T09:15:53;98769.00;;;11.90;87.56
39443;BME280;25147;52.142;9.960;2023-04-01T09:18:38;98556.78;;;10.60;87.60
39443;BME280;25147;52.142;9.960;2023-04-01T09:21:17;98693.38;;;11.25;87.90
39443;BME280;25147;52.142;9.960;2023-04-01T09:24:14;98335.81;;;9.17;88.23
39443;BME280;25147;52.142;9.960;2023-04-01T09:26:58;98687.72;;;11.15;87.77
39443;BME280;25147;52.142;9.960;2023-04-01T09:29:45;98361.75;;;9.40;87.40
39443;BME280;25147;52.142;9.960;2023-04-01T09:32:37;98825.50;;;11.97;87.13
39443;BME280;25147;52.142;9.960;2023-04-01T09:35:21;98363.59;;;9.57;86.66
39443;BME280;25147;52.142;9.960;2023-04-01T09:37:54;98496.47;;;10.44;86.05
39443;BME280;25147;52.142;9.960;2023-04-01T09:40:44;98352.72;;;9.48;85.96
39443;BME280;25147;52.142;9.960;2023-04-01T09:43:26;98816.38;;;12.40;85.57
39443;BME280;25147;52.142;9.960;2023-04-01T09:46:11;98255.09;;;9.12;85.83
39443;BME280;25147;52.142;9.960;2023-04-01T09:49:14;98565.25;;;11.20;86.08
39443;BME280;25147;52.142;9.960;2023-04-01T09:51:57;98768.81;;;12.29;84.67
39443;BME280;25147;52.142;9.960;2023-04-01T09:54:40;98692.41;;;11.64;83.88
39443;BME280;25147;52.142;9.960;2023-04-01T10:03:57;98756.09;;;11.85;85.08
39443;BME280;25147;52.142;9.960;2023-04-01T10:09:58;98826.53;;;12.12;86.32
39443;BME280;25147;52.142;9.960;2023-04-01T10:15:46;98635.88;;;10.86;87.33
39443;BME280;25147;52.142;9.960;2023-04-01T10:18:48;98795.84;;;11.76;89.13
39443;BME280;25147;52.142;9.960;2023-04-01T10:21:51;98811.59;;;11.95;89.53
39443;BME280;25147;52.142;9.960;2023-04-01T10:27:47;98831.25;;;12.22;90.22
39443;BME280;25147;52.142;9.960;2023-04-01T10:36:48;98817.81;;;12.29;89.94
39443;BME280;25147;52.142;9.960;2023-04-01T10:42:42;98806.00;;;12.37;90.10
39443;BME280;25147;52.142;9.960;2023-04-01T10:45:47;98645.28;;;11.45;89.93
39443;BME280;25147;52.142;9.960;2023-04-01T10:54:47;98726.19;;;12.41;89.78
39443;BME280;25147;52.142;9.960;2023-04-01T10:57:32;98852.91;;;13.15;88.43
39443;BME280;25147;52.142;9.960;2023-04-01T11:00:33;98841.88;;;13.24;88.34
39443;BME280;25147;52.142;9.960;2023-04-01T11:03:43;98845.28;;;13.26;88.45
39443;BME280;25147;52.142;9.960;2023-04-01T11:06:31;98838.72;;;13.35;87.97
39443;BME280;25147;52.142;9.960;2023-04-01T11:09:19;98840.63;;;13.49;88.07
39443;BME280;25147;52.142;9.960;2023-04-01T11:12:28;98846.44;;;13.38;85.99
39443;BME280;25147;52.142;9.960;2023-04-01T11:15:26;98855.19;;;13.38;86.21
39443;BME280;25147;52.142;9.960;2023-04-01T11:21:40;98858.59;;;13.23;85.21
39443;BME280;25147;52.142;9.960;2023-04-01T11:24:46;98865.25;;;13.13;84.67
39443;BME280;25147;52.142;9.960;2023-04-01T11:27:39;98720.34;;;12.19;85.85
39443;BME280;25147;52.142;9.960;2023-04-01T11:30:22;98860.78;;;13.15;86.66
39443;BME280;25147;52.142;9.960;2023-04-01T11:32:59;98675.22;;;12.12;86.84
39443;BME280;25147;52.142;9.960;2023-04-01T11:35:42;98605.13;;;11.62;85.70
39443;BME280;25147;52.142;9.960;2023-04-01T11:38:35;98583.78;;;11.70;86.10
39443;BME280;25147;52.142;9.960;2023-04-01T11:41:35;98421.88;;;10.72;85.99
39443;BME280;25147;52.142;9.960;2023-04-01T11:44:16;98754.06;;;12.61;86.85
39443;BME280;25147;52.142;9.960;2023-04-01T11:46:52;98882.53;;;13.52;86.91
39443;BME280;25147;52.142;9.960;2023-04-01T11:49:36;98398.34;;;10.72;87.94
39443;BME280;25147;52.142;9.960;2023-04-01T11:52:14;98604.00;;;11.85;86.86
39443;BME280;25147;52.142;9.960;2023-04-01T11:54:57;98652.06;;;12.20;84.18
39443;BME280;25147;52.142;9.960;2023-04-01T11:57:56;98792.28;;;13.18;84.72
39443;BME280;25147;52.142;9.960;2023-04-01T12:00:48;98880.38;;;13.92;83.91
39443;BME280;25147;52.142;9.960;2023-04-01T12:03:41;98849.47;;;13.79;83.67
39443;BME280;25147;52.142;9.960;2023-04-01T12:06:16;98894.16;;;14.13;83.17
39443;BME280;25147;52.142;9.960;2023-04-01T12:08:51;98491.47;;;11.64;81.60
39443;BME280;25147;52.142;9.960;2023-04-01T12:11:32;98865.09;;;14.14;81.41
39443;BME280;25147;52.142;9.960;2023-04-01T12:14:07;98719.53;;;13.36;79.82
39443;BME280;25147;52.142;9.960;2023-04-01T12:16:46;98893.19;;;14.45;79.21
39443;BME280;25147;52.142;9.960;2023-04-01T12:19:23;98899.38;;;14.44;78.59
39443;BME280;25147;52.142;9.960;2023-04-01T12:22:03;98493.66;;;11.90;78.77
39443;BME280;25147;52.142;9.960;2023-04-01T12:24:49;98880.19;;;14.42;78.49
39443;BME280;25147;52.142;9.960;2023-04-01T12:27:31;98887.09;;;14.45;79.04
39443;BME280;25147;52.142;9.960;2023-04-01T12:30:29;98898.88;;;14.70;78.88
39443;BME280;25147;52.142;9.960;2023-04-01T12:33:19;98904.03;;;14.71;79.04
39443;BME280;25147;52.142;9.960;2023-04-01T12:35:56;98747.84;;;13.78;76.96
39443;BME280;25147;52.142;9.960;2023-04-01T12:38:32;98649.00;;;13.11;77.80
39443;BME280;25147;52.142;9.960;2023-04-01T12:41:08;98741.56;;;13.65;77.79
39443;BME280;25147;52.142;9.960;2023-04-01T12:44:13;98741.06;;;13.74;76.54
39443;BME280;25147;52.142;9.960;2023-04-01T12:46:59;98884.53;;;14.59;76.58
39443;BME280;25147;52.142;9.960;2023-04-01T12:49:39;98454.47;;;11.87;71.24
39443;BME280;25147;52.142;9.960;2023-04-01T12:52:12;98812.16;;;14.04;71.63
39443;BME280;25147;52.142;9.960;2023-04-01T12:55:00;98923.69;;;14.66;71.69
39443;BME280;25147;52.142;9.960;2023-04-01T12:57:47;98814.78;;;13.89;71.86
39443;BME280;25147;52.142;9.960;2023-04-01T13:00:34;98612.91;;;12.67;71.75
39443;BME280;25147;52.142;9.960;2023-04-01T13:03:19;98902.88;;;14.45;71.63
39443;BME280;25147;52.142;9.960;2023-04-01T13:09:31;98528.28;;;12.30;71.69
39443;BME280;25147;52.142;9.960;2023-04-01T13:12:18;98918.97;;;14.87;72.04
39443;BME280;25147;52.142;9.960;2023-04-01T13:15:03;98944.00;;;14.94;72.24
39443;BME280;25147;52.142;9.960;2023-04-01T13:17:39;98805.50;;;13.97;71.91
39443;BME280;25147;52.142;9.960;2023-04-01T13:20:22;98609.88;;;12.74;71.07
39443;BME280;25147;52.142;9.960;2023-04-01T13:23:01;98683.44;;;13.22;70.38
39443;BME280;25147;52.142;9.960;2023-04-01T13:25:36;98545.13;;;12.26;70.33
39443;BME280;25147;52.142;9.960;2023-04-01T13:28:12;98965.81;;;14.50;72.73
39443;BME280;25147;52.142;9.960;2023-04-01T13:30:47;98817.28;;;13.42;75.02
39443;BME280;25147;52.142;9.960;2023-04-01T13:33:23;98697.28;;;12.26;75.63
39443;BME280;25147;52.142;9.960;2023-04-01T13:36:03;98536.97;;;10.73;77.03
39443;BME280;25147;52.142;9.960;2023-04-01T13:39:00;98828.97;;;11.97;79.65
39443;BME280;25147;52.142;9.960;2023-04-01T13:41:43;98984.47;;;12.56;83.57
39443;BME280;25147;52.142;9.960;2023-04-01T13:44:19;98692.78;;;10.61;87.07
39443;BME280;25147;52.142;9.960;2023-04-01T13:47:12;98711.44;;;10.33;89.63
39443;BME280;25147;52.142;9.960;2023-04-01T13:50:08;98565.09;;;9.28;91.68
39443;BME280;25147;52.142;9.960;2023-04-01T13:53:03;98511.94;;;8.42;94.03
39443;BME280;25147;52.142;9.960;2023-04-01T13:56:07;98984.13;;;11.27;96.62
39443;BME280;25147;52.142;9.960;2023-04-01T13:59:03;98529.00;;;8.27;98.42
39443;BME280;25147;52.142;9.960;2023-04-01T14:01:39;98703.00;;;9.18;98.28
39443;BME280;25147;52.142;9.960;2023-04-01T14:04:39;98561.69;;;8.12;99.27
39443;BME280;25147;52.142;9.960;2023-04-01T14:07:25;98536.28;;;7.94;100.00
39443;BME280;25147;52.142;9.960;2023-04-01T14:10:05;98846.03;;;9.80;100.00
39443;BME280;25147;52.142;9.960;2023-04-01T14:12:40;98768.41;;;9.38;100.00
39443;BME280;25147;52.142;9.960;2023-04-01T14:15:28;98566.94;;;8.11;100.00
39443;BME280;25147;52.142;9.960;2023-04-01T14:21:08;98840.38;;;9.69;100.00
39443;BME280;25147;52.142;9.960;2023-04-01T14:23:50;99015.41;;;10.65;100.00
39443;BME280;25147;52.142;9.960;2023-04-01T14:26:30;99038.50;;;10.77;100.00
39443;BME280;25147;52.142;9.960;2023-04-01T14:29:10;98902.78;;;10.00;100.00
39443;BME280;25147;52.142;9.960;2023-04-01T14:31:50;98860.91;;;9.78;100.00
39443;BME280;25147;52.142;9.960;2023-04-01T14:34:32;99057.84;;;10.73;100.00
39443;BME280;25147;52.142;9.960;2023-04-01T14:37:22;98956.75;;;10.25;100.00
39443;BME280;25147;52.142;9.960;2023-04-01T14:40:26;99040.91;;;10.82;100.00
39443;BME280;25147;52.142;9.960;2023-04-01T14:43:25;99052.19;;;10.84;100.00
39443;BME280;25147;52.142;9.960;2023-04-01T14:46:08;99054.63;;;10.89;100.00
39443;BME280;25147;52.142;9.960;2023-04-01T14:48:39;99058.25;;;10.84;100.00